Taikeimaru No.5 — JI3607 — position and weather

sailwx.info

Track history (hours):
 
Tides and Currents Weather Stations Pressure Air Temp Water Temp Dewpoint Dewpoint Depression Visibility Wind Speed Wind Dir Waves Ship Positions

Taikeimaru No.5

Last reported at 2018-Jan-21 07:25 UTC. Time now 2018-Jan-21 23:51 UTC.
Position N 33°54' E 134°55'.

Length 77 m; draft 5 m.

Type: Tanker. MMSI: 431300411.

Date/timePositionNaut miles runAvg speedWind from/ knotsBaromVisibWave heightAir tempDewpointWater temp
2018-Jan-21 07:25N 33°54' E 134°55'511.7
2018-Jan-21 07:01N 33°58' E 134°57'611.8
2018-Jan-21 06:31N 34°04' E 134°60'611.3
2018-Jan-21 06:00N 34°07' E 135°05'2 3.7
2018-Jan-21 05:31N 34°07' E 135°07'0 0.0
2018-Jan-21 05:00N 34°07' E 135°07'0 0.0
2018-Jan-21 04:31N 34°07' E 135°07'0 0.0
2018-Jan-21 04:01N 34°07' E 135°07'0 0.0
2018-Jan-21 03:31N 34°07' E 135°07'0 0.1
2018-Jan-21 03:00N 34°07' E 135°07'0 0.8
2018-Jan-21 02:31N 34°08' E 135°07'0 0.0
2018-Jan-21 02:01N 34°08' E 135°07'0 0.1
2018-Jan-21 01:31N 34°08' E 135°07'0 0.0
2018-Jan-21 01:01N 34°08' E 135°07'0 0.1
2018-Jan-21 00:31N 34°08' E 135°07'0 0.1
2018-Jan-21 00:00N 34°08' E 135°07'0 0.0
2018-Jan-20 23:30N 34°08' E 135°07'0 0.1
2018-Jan-20 23:00N 34°08' E 135°07'0 0.1
2018-Jan-20 22:31N 34°08' E 135°07'0 0.1
2018-Jan-20 22:01N 34°08' E 135°07'0 0.1
2018-Jan-20 21:31N 34°08' E 135°07'0 0.0
2018-Jan-20 21:00N 34°08' E 135°07'0 0.0
2018-Jan-20 20:31N 34°08' E 135°07'0 0.0
2018-Jan-20 20:01N 34°08' E 135°07'0 0.0
2018-Jan-20 19:30N 34°08' E 135°07'0 0.0
2018-Jan-20 19:01N 34°08' E 135°07'0 0.0
2018-Jan-20 18:31N 34°08' E 135°07'4 7.1
2018-Jan-20 18:00N 34°06' E 135°03'611.0
2018-Jan-20 17:30N 34°02' E 134°59'611.3
2018-Jan-20 17:00N 33°57' E 134°56'611.4
2018-Jan-20 16:29N 33°52' E 134°52'4 0.1
2018-Jan-19 09:36N 33°55' E 134°55'111.3
2018-Jan-19 09:30N 33°56' E 134°56'611.4
2018-Jan-19 09:00N 34°00' E 134°59'611.7
2018-Jan-19 08:30N 34°05' E 135°03'4 8.3
2018-Jan-19 08:00N 34°07' E 135°08'0 0.1
2018-Jan-19 07:30N 34°07' E 135°08'0 0.0
2018-Jan-19 07:01N 34°07' E 135°08'0 0.0
2018-Jan-19 06:30N 34°07' E 135°08'4 7.5
2018-Jan-19 06:00N 34°10' E 135°05'611.6
2018-Jan-19 05:30N 34°14' E 135°00'510.9
2018-Jan-19 05:01N 34°20' E 134°60'510.8
2018-Jan-19 04:31N 34°24' E 135°04'611.6
2018-Jan-19 04:01N 34°27' E 135°10'611.1
2018-Jan-19 03:30N 34°30' E 135°16'611.2
2018-Jan-19 03:00N 34°33' E 135°22'3 6.7
2018-Jan-19 02:30N 34°33' E 135°26'0 0.0
2018-Jan-19 02:00N 34°33' E 135°26'0 0.0
2018-Jan-19 01:31N 34°33' E 135°26'0 0.0
2018-Jan-19 01:00N 34°33' E 135°26'0 0.0
2018-Jan-19 00:30N 34°33' E 135°26'0 0.0
2018-Jan-19 00:00N 34°33' E 135°26'0 0.0
2018-Jan-18 23:30N 34°33' E 135°26'0 0.0
2018-Jan-18 23:01N 34°33' E 135°26'2 3.3
2018-Jan-18 22:30N 34°33' E 135°24'4 7.7
2018-Jan-18 22:00N 34°32' E 135°20'0 0.1
2018-Jan-18 21:30N 34°32' E 135°19'0 0.0
2018-Jan-18 21:00N 34°32' E 135°19'0 0.0
2018-Jan-18 20:30N 34°32' E 135°19'0 0.0
2018-Jan-18 20:00N 34°32' E 135°19'0 0.0
2018-Jan-18 19:30N 34°32' E 135°19'0 0.0
2018-Jan-18 19:00N 34°32' E 135°19'0 0.0
2018-Jan-18 18:30N 34°32' E 135°19'0 0.0
2018-Jan-18 18:00N 34°32' E 135°19'0 0.0
2018-Jan-18 17:31N 34°32' E 135°19'0 0.0
2018-Jan-18 17:00N 34°32' E 135°19'0 0.0
2018-Jan-18 16:30N 34°32' E 135°19'0 0.0
2018-Jan-18 16:01N 34°32' E 135°19'0 0.0
2018-Jan-18 15:30N 34°32' E 135°19'0 0.0
2018-Jan-18 15:00N 34°32' E 135°19'0 0.0
2018-Jan-18 14:30N 34°32' E 135°19'4 7.9
2018-Jan-18 14:01N 34°29' E 135°16'611.5
2018-Jan-18 13:31N 34°26' E 135°10'611.5
2018-Jan-18 13:00N 34°22' E 135°05'611.8
2018-Jan-18 12:31N 34°18' E 135°00'611.7
2018-Jan-18 12:00N 34°12' E 134°58'611.8
2018-Jan-18 11:31N 34°07' E 134°56'611.6
2018-Jan-18 11:00N 34°01' E 134°54'611.8
2018-Jan-18 10:29N 33°55' E 134°53'511.3
2018-Jan-18 10:00N 33°50' E 134°51'  
2018-Jan-12 15:00N 34°30' E 135°15'611.5
2018-Jan-12 14:30N 34°26' E 135°10'611.2
2018-Jan-12 14:01N 34°22' E 135°05'611.2
2018-Jan-12 13:30N 34°18' E 135°01'5 9.5
2018-Jan-12 13:00N 34°14' E 134°58'611.1
2018-Jan-12 12:31N 34°08' E 134°57'611.4
2018-Jan-12 12:01N 34°03' E 134°55'611.2
2018-Jan-12 11:29N 33°57' E 134°54'510.9
2018-Jan-12 11:00N 33°52' E 134°52'711.1
2018-Jan-12 10:24N 33°46' E 134°48'10 0.4
2018-Jan-11 11:13N 33°54' E 134°55'211.4
2018-Jan-11 11:00N 33°57' E 134°57'611.4
2018-Jan-11 10:30N 34°02' E 135°00'611.2
2018-Jan-11 10:00N 34°07' E 135°03'3 7.0
2018-Jan-11 09:31N 34°07' E 135°08'0 0.2
2018-Jan-11 09:01N 34°07' E 135°08'0 0.0
2018-Jan-11 08:30N 34°07' E 135°08'0 0.0
2018-Jan-11 08:01N 34°07' E 135°08'0 0.0
2018-Jan-11 07:31N 34°07' E 135°08'  
Track history (hours):
 
Tides and Currents Weather Stations Pressure Air Temp Water Temp Dewpoint Dewpoint Depression Visibility Wind Speed Wind Dir Waves Ship Positions

Taikeimaru No.5

Last reported at 2018-Jan-21 07:25 UTC. Time now 2018-Jan-21 23:51 UTC.
Position N 33°54' E 134°55'.

Length 77 m; draft 5 m.

Type: Tanker. MMSI: 431300411.

Date/timePositionNaut miles runAvg speedWind from/ knotsBaromVisibWave heightAir tempDewpointWater temp
2018-Jan-21 07:25N 33°54' E 134°55'511.7
2018-Jan-21 07:01N 33°58' E 134°57'611.8
2018-Jan-21 06:31N 34°04' E 134°60'611.3
2018-Jan-21 06:00N 34°07' E 135°05'2 3.7
2018-Jan-21 05:31N 34°07' E 135°07'0 0.0
2018-Jan-21 05:00N 34°07' E 135°07'0 0.0
2018-Jan-21 04:31N 34°07' E 135°07'0 0.0
2018-Jan-21 04:01N 34°07' E 135°07'0 0.0
2018-Jan-21 03:31N 34°07' E 135°07'0 0.1
2018-Jan-21 03:00N 34°07' E 135°07'0 0.8
2018-Jan-21 02:31N 34°08' E 135°07'0 0.0
2018-Jan-21 02:01N 34°08' E 135°07'0 0.1
2018-Jan-21 01:31N 34°08' E 135°07'0 0.0
2018-Jan-21 01:01N 34°08' E 135°07'0 0.1
2018-Jan-21 00:31N 34°08' E 135°07'0 0.1
2018-Jan-21 00:00N 34°08' E 135°07'0 0.0
2018-Jan-20 23:30N 34°08' E 135°07'0 0.1
2018-Jan-20 23:00N 34°08' E 135°07'0 0.1
2018-Jan-20 22:31N 34°08' E 135°07'0 0.1
2018-Jan-20 22:01N 34°08' E 135°07'0 0.1
2018-Jan-20 21:31N 34°08' E 135°07'0 0.0
2018-Jan-20 21:00N 34°08' E 135°07'0 0.0
2018-Jan-20 20:31N 34°08' E 135°07'0 0.0
2018-Jan-20 20:01N 34°08' E 135°07'0 0.0
2018-Jan-20 19:30N 34°08' E 135°07'0 0.0
2018-Jan-20 19:01N 34°08' E 135°07'0 0.0
2018-Jan-20 18:31N 34°08' E 135°07'4 7.1
2018-Jan-20 18:00N 34°06' E 135°03'611.0
2018-Jan-20 17:30N 34°02' E 134°59'611.3
2018-Jan-20 17:00N 33°57' E 134°56'611.4
2018-Jan-20 16:29N 33°52' E 134°52'4 0.1
2018-Jan-19 09:36N 33°55' E 134°55'111.3
2018-Jan-19 09:30N 33°56' E 134°56'611.4
2018-Jan-19 09:00N 34°00' E 134°59'611.7
2018-Jan-19 08:30N 34°05' E 135°03'4 8.3
2018-Jan-19 08:00N 34°07' E 135°08'0 0.1
2018-Jan-19 07:30N 34°07' E 135°08'0 0.0
2018-Jan-19 07:01N 34°07' E 135°08'0 0.0
2018-Jan-19 06:30N 34°07' E 135°08'4 7.5
2018-Jan-19 06:00N 34°10' E 135°05'611.6
2018-Jan-19 05:30N 34°14' E 135°00'510.9
2018-Jan-19 05:01N 34°20' E 134°60'510.8
2018-Jan-19 04:31N 34°24' E 135°04'611.6
2018-Jan-19 04:01N 34°27' E 135°10'611.1
2018-Jan-19 03:30N 34°30' E 135°16'611.2
2018-Jan-19 03:00N 34°33' E 135°22'3 6.7
2018-Jan-19 02:30N 34°33' E 135°26'0 0.0
2018-Jan-19 02:00N 34°33' E 135°26'0 0.0
2018-Jan-19 01:31N 34°33' E 135°26'0 0.0
2018-Jan-19 01:00N 34°33' E 135°26'0 0.0
2018-Jan-19 00:30N 34°33' E 135°26'0 0.0
2018-Jan-19 00:00N 34°33' E 135°26'0 0.0
2018-Jan-18 23:30N 34°33' E 135°26'0 0.0
2018-Jan-18 23:01N 34°33' E 135°26'2 3.3
2018-Jan-18 22:30N 34°33' E 135°24'4 7.7
2018-Jan-18 22:00N 34°32' E 135°20'0 0.1
2018-Jan-18 21:30N 34°32' E 135°19'0 0.0
2018-Jan-18 21:00N 34°32' E 135°19'0 0.0
2018-Jan-18 20:30N 34°32' E 135°19'0 0.0
2018-Jan-18 20:00N 34°32' E 135°19'0 0.0
2018-Jan-18 19:30N 34°32' E 135°19'0 0.0
2018-Jan-18 19:00N 34°32' E 135°19'0 0.0
2018-Jan-18 18:30N 34°32' E 135°19'0 0.0
2018-Jan-18 18:00N 34°32' E 135°19'0 0.0
2018-Jan-18 17:31N 34°32' E 135°19'0 0.0
2018-Jan-18 17:00N 34°32' E 135°19'0 0.0
2018-Jan-18 16:30N 34°32' E 135°19'0 0.0
2018-Jan-18 16:01N 34°32' E 135°19'0 0.0
2018-Jan-18 15:30N 34°32' E 135°19'0 0.0
2018-Jan-18 15:00N 34°32' E 135°19'0 0.0
2018-Jan-18 14:30N 34°32' E 135°19'4 7.9
2018-Jan-18 14:01N 34°29' E 135°16'611.5
2018-Jan-18 13:31N 34°26' E 135°10'611.5
2018-Jan-18 13:00N 34°22' E 135°05'611.8
2018-Jan-18 12:31N 34°18' E 135°00'611.7
2018-Jan-18 12:00N 34°12' E 134°58'611.8
2018-Jan-18 11:31N 34°07' E 134°56'611.6
2018-Jan-18 11:00N 34°01' E 134°54'611.8
2018-Jan-18 10:29N 33°55' E 134°53'511.3
2018-Jan-18 10:00N 33°50' E 134°51'  
2018-Jan-12 15:00N 34°30' E 135°15'611.5
2018-Jan-12 14:30N 34°26' E 135°10'611.2
2018-Jan-12 14:01N 34°22' E 135°05'611.2
2018-Jan-12 13:30N 34°18' E 135°01'5 9.5
2018-Jan-12 13:00N 34°14' E 134°58'611.1
2018-Jan-12 12:31N 34°08' E 134°57'611.4
2018-Jan-12 12:01N 34°03' E 134°55'611.2
2018-Jan-12 11:29N 33°57' E 134°54'510.9
2018-Jan-12 11:00N 33°52' E 134°52'711.1
2018-Jan-12 10:24N 33°46' E 134°48'10 0.4
2018-Jan-11 11:13N 33°54' E 134°55'211.4
2018-Jan-11 11:00N 33°57' E 134°57'611.4
2018-Jan-11 10:30N 34°02' E 135°00'611.2
2018-Jan-11 10:00N 34°07' E 135°03'3 7.0
2018-Jan-11 09:31N 34°07' E 135°08'0 0.2
2018-Jan-11 09:01N 34°07' E 135°08'0 0.0
2018-Jan-11 08:30N 34°07' E 135°08'0 0.0
2018-Jan-11 08:01N 34°07' E 135°08'0 0.0
2018-Jan-11 07:31N 34°07' E 135°08'  

Dump ship's entire track history